createdAt,value
2023-03-13T00:04:54.816Z,0
2023-03-13T00:10:30.220Z,0
2023-03-13T00:15:42.828Z,0
2023-03-13T00:21:33.297Z,0
2023-03-13T00:26:57.313Z,0
2023-03-13T00:32:36.074Z,0
2023-03-13T00:38:09.697Z,0
2023-03-13T00:43:35.409Z,0
2023-03-13T00:49:03.023Z,0
2023-03-13T00:54:33.323Z,0
2023-03-13T01:00:04.343Z,0
2023-03-13T01:05:59.536Z,0
2023-03-13T01:11:10.650Z,0
2023-03-13T01:16:59.180Z,0
2023-03-13T01:22:35.220Z,0
2023-03-13T01:28:15.286Z,0
2023-03-13T01:33:38.763Z,0
2023-03-13T01:39:16.594Z,0
2023-03-13T01:50:32.233Z,0
2023-03-13T01:56:03.226Z,0
2023-03-13T02:01:16.123Z,0
2023-03-13T02:06:46.708Z,0
2023-03-13T02:12:27.238Z,5.9
2023-03-13T02:18:02.353Z,9.6
2023-03-13T02:23:29.482Z,10.7
2023-03-13T02:29:16.341Z,9.6
2023-03-13T02:34:57.455Z,10.7
2023-03-13T02:40:23.268Z,7.2
2023-03-13T02:46:11.661Z,5.9
2023-03-13T02:51:27.988Z,4.8
2023-03-13T02:57:20.207Z,4.8
2023-03-13T03:02:32.102Z,7.2
2023-03-13T03:08:05.569Z,7.2
2023-03-13T03:13:43.564Z,8.4
2023-03-13T03:19:20.824Z,8.4
2023-03-13T03:25:08.988Z,10.7
2023-03-13T03:30:32.747Z,10.7
2023-03-13T03:35:59.008Z,10.7
2023-03-13T03:41:31.958Z,10.7
2023-03-13T03:47:11.487Z,8.4
2023-03-13T03:52:37.596Z,8.4
2023-03-13T03:58:28.346Z,10.7
2023-03-13T04:03:44.894Z,7.2
2023-03-13T04:09:36.358Z,8.4
2023-03-13T04:15:16.820Z,9.6
2023-03-13T04:20:48.323Z,7.2
2023-03-13T04:26:16.800Z,7.2
2023-03-13T04:31:41.102Z,10.7
2023-03-13T04:37:10.900Z,8.4
2023-03-13T04:42:52.574Z,7.2
2023-03-13T04:48:34.102Z,5.9
2023-03-13T04:54:14.568Z,5.9
2023-03-13T04:59:32.210Z,4.8
2023-03-13T05:05:09.662Z,7.2
2023-03-13T05:10:43.763Z,7.2
2023-03-13T05:16:23.611Z,7.2
2023-03-13T05:22:10.621Z,9.6
2023-03-13T05:27:37.382Z,8.4
2023-03-13T05:32:58.729Z,9.6
2023-03-13T05:38:35.401Z,11.9
2023-03-13T05:44:07.306Z,11.9
2023-03-13T05:49:52.689Z,11.9
2023-03-13T05:55:28.189Z,13.2
2023-03-13T06:00:58.495Z,11.9
2023-03-13T06:06:44.338Z,9.6
2023-03-13T06:11:58.053Z,10.7
2023-03-13T06:17:41.576Z,9.6
2023-03-13T06:23:11.271Z,9.6
2023-03-13T06:28:44.696Z,10.7
2023-03-13T06:34:34.867Z,10.7
2023-03-13T06:40:12.668Z,10.7
2023-03-13T06:45:30.814Z,11.9
2023-03-13T06:51:03.880Z,10.7
2023-03-13T06:56:38.058Z,11.9
2023-03-13T07:02:30.391Z,11.9
2023-03-13T07:08:03.090Z,13.2
2023-03-13T07:13:40.578Z,14.4
2023-03-13T07:19:08.929Z,8.4
2023-03-13T07:24:51.620Z,10.7
2023-03-13T07:30:26.660Z,10.7
2023-03-13T07:35:59.751Z,11.9
2023-03-13T07:41:13.851Z,11.9
2023-03-13T07:47:00.559Z,7.2
2023-03-13T07:52:26.577Z,9.6
2023-03-13T07:57:59.585Z,8.4
2023-03-13T08:03:39.956Z,7.2
2023-03-13T08:09:15.696Z,3.6
2023-03-13T08:15:04.064Z,9.6
2023-03-13T08:20:18.478Z,9.6
2023-03-13T08:25:46.313Z,5.9
2023-03-13T08:31:26.353Z,4.8
2023-03-13T08:37:17.190Z,8.4
2023-03-13T08:42:37.667Z,7.2
2023-03-13T08:48:20.342Z,3.6
2023-03-13T08:53:41.725Z,0
2023-03-13T08:59:25.365Z,0
2023-03-13T09:04:54.203Z,0
2023-03-13T09:10:42.803Z,7.2
2023-03-13T09:16:12.360Z,8.4
2023-03-13T09:21:42.598Z,7.2
2023-03-13T09:27:26.245Z,10.7
2023-03-13T09:33:11.052Z,9.6
2023-03-13T09:38:48.781Z,10.7
2023-03-13T09:44:08.661Z,9.6
2023-03-13T09:49:54.677Z,10.7
2023-03-13T09:55:26.606Z,10.7
2023-03-13T10:01:08.674Z,10.7
2023-03-13T10:06:44.733Z,9.6
2023-03-13T10:12:08.340Z,10.7
2023-03-13T10:17:40.107Z,10.7
2023-03-13T10:23:07.474Z,10.7
2023-03-13T10:28:46.955Z,10.7
2023-03-13T10:34:47.104Z,10.7
2023-03-13T10:40:15.895Z,10.7
2023-03-13T10:45:39.102Z,10.7
2023-03-13T10:51:23.052Z,11.9
2023-03-13T10:56:51.836Z,11.9
2023-03-13T11:02:47.708Z,10.7
2023-03-13T11:07:58.342Z,10.7
2023-03-13T11:13:38.629Z,10.7
2023-03-13T11:19:14.543Z,13.2
2023-03-13T11:24:58.465Z,10.7
2023-03-13T11:30:31.342Z,9.6
2023-03-13T11:36:21.012Z,11.9
2023-03-13T11:41:46.337Z,13.2
2023-03-13T11:47:44.418Z,13.2
2023-03-13T11:53:04.704Z,11.9
2023-03-13T11:58:42.012Z,10.7
2023-03-13T12:04:24.427Z,9.6
2023-03-13T12:10:03.506Z,10.7
2023-03-13T12:15:39.656Z,9.6
2023-03-13T12:21:05.124Z,10.7
2023-03-13T12:27:03.502Z,9.6
2023-03-13T12:32:27.484Z,11.9
2023-03-13T12:38:09.618Z,11.9
2023-03-13T12:43:34.767Z,10.7
2023-03-13T12:49:22.094Z,11.9
2023-03-13T12:55:00.172Z,14.4
2023-03-13T13:00:22.175Z,13.2
2023-03-13T13:06:10.885Z,13.2
2023-03-13T13:11:37.433Z,10.7
2023-03-13T13:17:16.174Z,10.7
2023-03-13T13:23:16.514Z,8.4
2023-03-13T13:28:39.937Z,9.6
2023-03-13T13:34:12.317Z,9.6
2023-03-13T13:40:06.636Z,10.7
2023-03-13T13:45:47.405Z,11.9
2023-03-13T13:50:57.947Z,15.6
2023-03-13T13:56:38.377Z,14.4
2023-03-13T14:02:42.864Z,13.2
2023-03-13T14:07:51.587Z,14.4
2023-03-13T14:13:46.033Z,11.9
2023-03-13T14:19:29.816Z,13.2
2023-03-13T14:24:55.676Z,14.4
2023-03-13T14:30:33.424Z,13.2
2023-03-13T14:36:07.295Z,13.2
2023-03-13T14:41:55.723Z,10.7
2023-03-13T14:47:35.180Z,10.7
2023-03-13T14:53:15.835Z,9.6
2023-03-13T14:58:52.618Z,10.7
2023-03-13T15:04:23.770Z,10.7
2023-03-13T15:09:49.919Z,8.4
2023-03-13T15:15:17.889Z,9.6
2023-03-13T15:21:14.362Z,10.7
2023-03-13T15:26:52.332Z,10.7
2023-03-13T15:32:23.016Z,8.4
2023-03-13T15:37:45.238Z,7.2
2023-03-13T15:43:30.149Z,8.4
2023-03-13T15:49:11.370Z,8.4
2023-03-13T15:54:57.265Z,5.9
2023-03-13T16:00:28.988Z,5.9
2023-03-13T16:05:51.125Z,2.4
2023-03-13T16:11:44.449Z,3.6
2023-03-13T16:17:26.477Z,3.6
2023-03-13T16:22:51.155Z,3.6
2023-03-13T16:28:35.104Z,0
2023-03-13T16:33:53.772Z,2.4
2023-03-13T16:39:42.202Z,3.6
2023-03-13T16:45:08.301Z,9.6
2023-03-13T16:50:33.942Z,10.7
2023-03-13T16:56:33.352Z,7.2
2023-03-13T17:01:59.994Z,3.6
2023-03-13T17:07:29.167Z,3.6
2023-03-13T17:13:16.637Z,2.4
2023-03-13T17:18:29.996Z,0
2023-03-13T17:24:04.213Z,2.4
2023-03-13T17:29:45.928Z,3.6
2023-03-13T17:35:41.132Z,3.6
2023-03-13T17:41:16.290Z,5.9
2023-03-13T17:46:41.301Z,4.8
2023-03-13T17:52:08.748Z,9.6
2023-03-13T17:57:40.743Z,8.4
2023-03-13T18:03:18.546Z,9.6
2023-03-13T18:08:47.838Z,13.2
2023-03-13T18:20:11.695Z,7.2
2023-03-13T18:25:32.329Z,7.2
2023-03-13T18:31:24.374Z,3.6
2023-03-13T18:36:52.258Z,4.8
2023-03-13T18:42:18.509Z,3.6
2023-03-13T18:47:57.944Z,5.9
2023-03-13T18:53:28.584Z,9.6
2023-03-13T18:59:23.018Z,11.9
2023-03-13T19:04:36.404Z,8.4
2023-03-13T19:10:19.174Z,5.9
2023-03-13T19:16:01.017Z,4.8
2023-03-13T19:21:30.190Z,7.2
2023-03-13T19:32:29.098Z,28.8
2023-03-13T19:38:04.569Z,39.6
2023-03-13T19:43:59.087Z,32.3
2023-03-13T19:49:25.905Z,33.6
2023-03-13T19:55:08.838Z,33.6
2023-03-13T20:00:30.186Z,42
2023-03-13T20:06:12.127Z,43.1
2023-03-13T20:11:52.578Z,33.6
2023-03-13T20:17:11.582Z,22.8
2023-03-13T20:22:46.137Z,32.3
2023-03-13T20:28:31.694Z,33.6
2023-03-13T20:34:14.843Z,31.2
2023-03-13T20:39:36.697Z,28.8
2023-03-13T20:45:16.296Z,28.8
2023-03-13T20:50:53.259Z,23.9
2023-03-13T20:56:19.013Z,22.8
2023-03-13T21:02:05.061Z,21.5
2023-03-13T21:07:21.862Z,25.1
2023-03-13T21:13:14.433Z,16.8
2023-03-13T21:18:52.410Z,10.7
2023-03-13T21:24:09.989Z,26.4
2023-03-13T21:29:45.556Z,20.4
2023-03-13T21:35:34.546Z,13.2
2023-03-13T21:40:57.651Z,5.9
2023-03-13T21:46:27.669Z,3.6
2023-03-13T21:52:15.028Z,5.9
2023-03-13T21:57:38.555Z,9.6
2023-03-13T22:03:25.864Z,3.6
2023-03-13T22:08:54.426Z,5.9
2023-03-13T22:14:22.128Z,8.4
2023-03-13T22:20:05.489Z,7.2
2023-03-13T22:25:46.770Z,7.2
2023-03-13T22:31:13.374Z,4.8
2023-03-13T22:36:44.035Z,4.8
2023-03-13T22:42:33.005Z,4.8
2023-03-13T22:47:47.060Z,9.6
2023-03-13T22:53:40.853Z,7.2
2023-03-13T22:58:48.922Z,14.4
2023-03-13T23:04:35.748Z,13.2
2023-03-13T23:10:00.236Z,11.9
2023-03-13T23:15:56.161Z,11.9
2023-03-13T23:21:06.357Z,11.9
2023-03-13T23:26:54.556Z,11.9
2023-03-13T23:32:31.415Z,10.7
2023-03-13T23:38:16.624Z,10.7
2023-03-13T23:43:30.782Z,9.6
2023-03-13T23:49:22.292Z,8.4
2023-03-13T23:54:40.534Z,7.2
